Liscomb, Iowa
Current Conditions -  °F | °C
As of 6:53 PM on Monday 26 Jan 2015 (Local Time) from KMIW Reporting Station
Broken Clouds Broken Clouds  
Wind Chill: 29°   Ceiling: 4600
Heat Index: 37°   Visibility: 10mi
Dew Point: 34°   Wind: 13mph
Humidity: 89%   Direction: 310°NW
Pressure: 29.88"   Gusts: NA
Location:  42.19°N, 93°W
Report Text: KMIW 270053Z AUTO 31011KT 10SM BKN046 03/01 A2988 RMK AO2 SLP128 T00280011
Loading
Personal Weather Stations






























Interactive Weather Map New forecast layout! Learn more

10-Day Weather Forecast

Advertisements
Track Severe Weather on mobile